sensor_id;sensor_type;location;lat;lon;timestamp;pressure;altitude;pressure_sealevel;temperature;humidity
14383;BME280;7275;50.328;8.720;2023-04-30T00:01:42;100215.81;;;18.22;43.43
14383;BME280;7275;50.328;8.720;2023-04-30T00:04:10;100226.03;;;18.15;43.63
14383;BME280;7275;50.328;8.720;2023-04-30T00:06:37;100220.13;;;18.10;43.48
14383;BME280;7275;50.328;8.720;2023-04-30T00:09:05;100221.41;;;18.03;43.42
14383;BME280;7275;50.328;8.720;2023-04-30T00:11:34;100222.66;;;17.98;43.58
14383;BME280;7275;50.328;8.720;2023-04-30T00:14:02;100220.41;;;17.90;43.38
14383;BME280;7275;50.328;8.720;2023-04-30T00:16:30;100226.13;;;17.84;43.50
14383;BME280;7275;50.328;8.720;2023-04-30T00:18:57;100221.25;;;17.77;43.64
14383;BME280;7275;50.328;8.720;2023-04-30T00:21:25;100224.34;;;17.69;43.46
14383;BME280;7275;50.328;8.720;2023-04-30T00:23:53;100227.72;;;17.57;43.80
14383;BME280;7275;50.328;8.720;2023-04-30T00:26:20;100225.81;;;17.43;43.92
14383;BME280;7275;50.328;8.720;2023-04-30T00:28:49;100229.00;;;17.34;43.97
14383;BME280;7275;50.328;8.720;2023-04-30T00:31:16;100222.38;;;17.26;44.09
14383;BME280;7275;50.328;8.720;2023-04-30T00:33:44;100229.78;;;17.21;44.34
14383;BME280;7275;50.328;8.720;2023-04-30T00:36:11;100230.97;;;17.15;44.30
14383;BME280;7275;50.328;8.720;2023-04-30T00:38:39;100230.44;;;17.09;44.17
14383;BME280;7275;50.328;8.720;2023-04-30T00:41:06;100228.91;;;17.05;44.36
14383;BME280;7275;50.328;8.720;2023-04-30T00:43:33;100230.13;;;16.99;44.42
14383;BME280;7275;50.328;8.720;2023-04-30T00:46:02;100224.25;;;16.93;44.50
14383;BME280;7275;50.328;8.720;2023-04-30T00:48:32;100231.63;;;16.88;44.49
14383;BME280;7275;50.328;8.720;2023-04-30T00:51:01;100231.97;;;16.82;44.54
14383;BME280;7275;50.328;8.720;2023-04-30T00:53:29;100224.22;;;16.77;44.60
14383;BME280;7275;50.328;8.720;2023-04-30T00:55:57;100234.28;;;16.72;44.57
14383;BME280;7275;50.328;8.720;2023-04-30T00:58:25;100235.41;;;16.68;44.66
14383;BME280;7275;50.328;8.720;2023-04-30T01:00:53;100234.75;;;16.63;44.66
14383;BME280;7275;50.328;8.720;2023-04-30T01:03:22;100229.66;;;16.58;44.78
14383;BME280;7275;50.328;8.720;2023-04-30T01:05:50;100238.78;;;16.54;44.77
14383;BME280;7275;50.328;8.720;2023-04-30T01:08:19;100242.50;;;16.52;44.88
14383;BME280;7275;50.328;8.720;2023-04-30T01:10:51;100236.41;;;16.48;45.12
14383;BME280;7275;50.328;8.720;2023-04-30T01:13:25;100241.16;;;16.43;45.11
14383;BME280;7275;50.328;8.720;2023-04-30T01:15:59;100244.91;;;16.39;45.13
14383;BME280;7275;50.328;8.720;2023-04-30T01:18:33;100240.69;;;16.35;45.03
14383;BME280;7275;50.328;8.720;2023-04-30T01:21:06;100239.19;;;16.30;45.26
14383;BME280;7275;50.328;8.720;2023-04-30T01:23:59;100238.56;;;16.25;45.35
14383;BME280;7275;50.328;8.720;2023-04-30T01:26:46;100237.00;;;16.21;45.20
14383;BME280;7275;50.328;8.720;2023-04-30T01:29:18;100247.03;;;16.16;45.20
14383;BME280;7275;50.328;8.720;2023-04-30T01:31:46;100246.16;;;16.15;45.23
14383;BME280;7275;50.328;8.720;2023-04-30T01:34:14;100251.59;;;16.14;45.51
14383;BME280;7275;50.328;8.720;2023-04-30T01:36:51;100238.41;;;16.11;45.41
14383;BME280;7275;50.328;8.720;2023-04-30T01:39:34;100240.53;;;16.04;45.59
14383;BME280;7275;50.328;8.720;2023-04-30T01:42:09;100252.22;;;16.02;45.52
14383;BME280;7275;50.328;8.720;2023-04-30T01:45:00;100253.38;;;15.96;46.00
14383;BME280;7275;50.328;8.720;2023-04-30T01:47:33;100254.31;;;15.95;45.70
14383;BME280;7275;50.328;8.720;2023-04-30T01:50:09;100256.28;;;15.91;45.89
14383;BME280;7275;50.328;8.720;2023-04-30T01:52:45;100258.22;;;15.88;45.87
14383;BME280;7275;50.328;8.720;2023-04-30T01:55:17;100266.31;;;15.86;46.08
14383;BME280;7275;50.328;8.720;2023-04-30T01:57:54;100259.31;;;15.84;46.17
14383;BME280;7275;50.328;8.720;2023-04-30T02:00:24;100262.06;;;15.82;46.13
14383;BME280;7275;50.328;8.720;2023-04-30T02:02:52;100262.94;;;15.83;46.11
14383;BME280;7275;50.328;8.720;2023-04-30T02:05:20;100263.88;;;15.82;46.14
14383;BME280;7275;50.328;8.720;2023-04-30T02:07:49;100264.03;;;15.79;46.50
14383;BME280;7275;50.328;8.720;2023-04-30T02:10:19;100264.03;;;15.79;46.16
14383;BME280;7275;50.328;8.720;2023-04-30T02:12:47;100272.03;;;15.79;46.12
14383;BME280;7275;50.328;8.720;2023-04-30T02:15:15;100268.59;;;15.77;46.27
14383;BME280;7275;50.328;8.720;2023-04-30T02:17:44;100270.47;;;15.75;46.32
14383;BME280;7275;50.328;8.720;2023-04-30T02:20:11;100262.53;;;15.73;46.16
14383;BME280;7275;50.328;8.720;2023-04-30T02:22:39;100273.28;;;15.72;46.32
14383;BME280;7275;50.328;8.720;2023-04-30T02:25:07;100274.97;;;15.73;46.29
14383;BME280;7275;50.328;8.720;2023-04-30T02:27:37;100276.84;;;15.71;46.36
14383;BME280;7275;50.328;8.720;2023-04-30T02:30:05;100274.19;;;15.71;46.43
14383;BME280;7275;50.328;8.720;2023-04-30T02:32:33;100279.53;;;15.71;46.21
14383;BME280;7275;50.328;8.720;2023-04-30T02:35:02;100272.47;;;15.70;46.34
14383;BME280;7275;50.328;8.720;2023-04-30T02:37:30;100277.81;;;15.70;46.42
14383;BME280;7275;50.328;8.720;2023-04-30T02:39:58;100273.41;;;15.69;46.33
14383;BME280;7275;50.328;8.720;2023-04-30T02:42:25;100269.81;;;15.70;46.44
14383;BME280;7275;50.328;8.720;2023-04-30T02:44:53;100271.59;;;15.69;46.45
14383;BME280;7275;50.328;8.720;2023-04-30T02:47:20;100269.72;;;15.71;46.37
14383;BME280;7275;50.328;8.720;2023-04-30T02:49:48;100268.81;;;15.72;46.56
14383;BME280;7275;50.328;8.720;2023-04-30T02:52:17;100278.50;;;15.73;46.75
14383;BME280;7275;50.328;8.720;2023-04-30T02:54:44;100265.19;;;15.73;46.65
14383;BME280;7275;50.328;8.720;2023-04-30T02:57:12;100262.31;;;15.78;46.60
14383;BME280;7275;50.328;8.720;2023-04-30T02:59:39;100271.16;;;15.78;46.56
14383;BME280;7275;50.328;8.720;2023-04-30T03:02:11;100263.16;;;15.78;46.62
14383;BME280;7275;50.328;8.720;2023-04-30T03:04:38;100263.09;;;15.80;46.60
14383;BME280;7275;50.328;8.720;2023-04-30T03:07:06;100268.41;;;15.80;46.62
14383;BME280;7275;50.328;8.720;2023-04-30T03:09:35;100268.59;;;15.77;46.57
14383;BME280;7275;50.328;8.720;2023-04-30T03:12:03;100261.59;;;15.74;46.48
14383;BME280;7275;50.328;8.720;2023-04-30T03:14:30;100268.84;;;15.71;46.74
14383;BME280;7275;50.328;8.720;2023-04-30T03:16:58;100273.50;;;15.67;46.53
14383;BME280;7275;50.328;8.720;2023-04-30T03:19:25;100267.53;;;15.62;46.76
14383;BME280;7275;50.328;8.720;2023-04-30T03:21:53;100263.44;;;15.55;46.83
14383;BME280;7275;50.328;8.720;2023-04-30T03:24:20;100268.97;;;15.51;46.87
14383;BME280;7275;50.328;8.720;2023-04-30T03:26:49;100268.34;;;15.46;46.87
14383;BME280;7275;50.328;8.720;2023-04-30T03:29:17;100280.03;;;15.43;46.80
14383;BME280;7275;50.328;8.720;2023-04-30T03:31:44;100279.19;;;15.41;46.78
14383;BME280;7275;50.328;8.720;2023-04-30T03:34:12;100282.06;;;15.37;46.70
14383;BME280;7275;50.328;8.720;2023-04-30T03:36:39;100283.06;;;15.34;46.87
14383;BME280;7275;50.328;8.720;2023-04-30T03:39:07;100276.25;;;15.29;47.04
14383;BME280;7275;50.328;8.720;2023-04-30T03:41:35;100279.13;;;15.24;46.92
14383;BME280;7275;50.328;8.720;2023-04-30T03:44:04;100280.28;;;15.18;47.08
14383;BME280;7275;50.328;8.720;2023-04-30T03:46:32;100286.66;;;15.14;47.09
14383;BME280;7275;50.328;8.720;2023-04-30T03:48:59;100278.81;;;15.11;47.12
14383;BME280;7275;50.328;8.720;2023-04-30T03:51:27;100278.13;;;15.08;47.12
14383;BME280;7275;50.328;8.720;2023-04-30T03:53:54;100282.69;;;15.04;47.20
14383;BME280;7275;50.328;8.720;2023-04-30T03:56:22;100282.84;;;15.01;47.28
14383;BME280;7275;50.328;8.720;2023-04-30T03:58:51;100276.78;;;14.98;47.18
14383;BME280;7275;50.328;8.720;2023-04-30T04:01:19;100279.53;;;14.96;47.26
14383;BME280;7275;50.328;8.720;2023-04-30T04:03:47;100275.28;;;14.92;47.37
14383;BME280;7275;50.328;8.720;2023-04-30T04:06:14;100277.28;;;14.87;47.31
14383;BME280;7275;50.328;8.720;2023-04-30T04:08:43;100278.31;;;14.85;47.36
14383;BME280;7275;50.328;8.720;2023-04-30T04:11:10;100266.88;;;14.83;47.38
14383;BME280;7275;50.328;8.720;2023-04-30T04:13:38;100273.09;;;14.82;47.42
14383;BME280;7275;50.328;8.720;2023-04-30T04:16:06;100272.31;;;14.80;47.44
14383;BME280;7275;50.328;8.720;2023-04-30T04:18:36;100278.63;;;14.77;47.64
14383;BME280;7275;50.328;8.720;2023-04-30T04:21:03;100277.84;;;14.75;47.50
14383;BME280;7275;50.328;8.720;2023-04-30T04:23:31;100287.69;;;14.73;47.58
14383;BME280;7275;50.328;8.720;2023-04-30T04:25:59;100276.31;;;14.70;47.63
14383;BME280;7275;50.328;8.720;2023-04-30T04:28:26;100277.31;;;14.67;47.66
14383;BME280;7275;50.328;8.720;2023-04-30T04:30:54;100285.38;;;14.66;47.84
14383;BME280;7275;50.328;8.720;2023-04-30T04:33:21;100287.16;;;14.65;47.86
14383;BME280;7275;50.328;8.720;2023-04-30T04:35:50;100292.50;;;14.65;47.96
14383;BME280;7275;50.328;8.720;2023-04-30T04:38:18;100292.50;;;14.65;48.02
14383;BME280;7275;50.328;8.720;2023-04-30T04:40:50;100289.84;;;14.65;47.92
14383;BME280;7275;50.328;8.720;2023-04-30T04:43:18;100291.63;;;14.65;47.98
14383;BME280;7275;50.328;8.720;2023-04-30T04:45:46;100300.47;;;14.65;48.02
14383;BME280;7275;50.328;8.720;2023-04-30T04:48:13;100288.03;;;14.66;47.98
14383;BME280;7275;50.328;8.720;2023-04-30T04:50:41;100298.59;;;14.67;48.10
14383;BME280;7275;50.328;8.720;2023-04-30T04:53:10;100294.09;;;14.69;47.95
14383;BME280;7275;50.328;8.720;2023-04-30T04:55:38;100299.28;;;14.72;47.99
14383;BME280;7275;50.328;8.720;2023-04-30T04:58:06;100299.13;;;14.75;48.00
14383;BME280;7275;50.328;8.720;2023-04-30T05:00:33;100296.28;;;14.80;48.03
14383;BME280;7275;50.328;8.720;2023-04-30T05:03:01;100296.06;;;14.84;48.01
14383;BME280;7275;50.328;8.720;2023-04-30T05:05:28;100300.41;;;14.87;48.03
14383;BME280;7275;50.328;8.720;2023-04-30T05:07:56;100308.19;;;14.91;47.98
14383;BME280;7275;50.328;8.720;2023-04-30T05:10:24;100297.38;;;14.94;47.97
14383;BME280;7275;50.328;8.720;2023-04-30T05:12:52;100304.28;;;14.98;47.88
14383;BME280;7275;50.328;8.720;2023-04-30T05:15:19;100304.94;;;15.03;47.97
14383;BME280;7275;50.328;8.720;2023-04-30T05:17:47;100300.22;;;15.10;47.81
14383;BME280;7275;50.328;8.720;2023-04-30T05:20:14;100307.03;;;15.15;47.78
14383;BME280;7275;50.328;8.720;2023-04-30T05:22:42;100307.72;;;15.20;47.88
14383;BME280;7275;50.328;8.720;2023-04-30T05:25:09;100304.75;;;15.27;47.91
14383;BME280;7275;50.328;8.720;2023-04-30T05:27:38;100303.69;;;15.31;47.86
14383;BME280;7275;50.328;8.720;2023-04-30T05:30:07;100300.06;;;15.32;47.82
14383;BME280;7275;50.328;8.720;2023-04-30T05:32:35;100302.72;;;15.32;47.90
14383;BME280;7275;50.328;8.720;2023-04-30T05:35:03;100298.13;;;15.35;47.71
14383;BME280;7275;50.328;8.720;2023-04-30T05:37:30;100304.09;;;15.40;47.81
14383;BME280;7275;50.328;8.720;2023-04-30T05:39:58;100302.13;;;15.45;47.93
14383;BME280;7275;50.328;8.720;2023-04-30T05:42:25;100307.06;;;15.53;47.86
14383;BME280;7275;50.328;8.720;2023-04-30T05:44:54;100313.84;;;15.60;47.74
14383;BME280;7275;50.328;8.720;2023-04-30T05:47:22;100302.88;;;15.66;47.70
14383;BME280;7275;50.328;8.720;2023-04-30T05:49:49;100305.34;;;15.70;47.61
14383;BME280;7275;50.328;8.720;2023-04-30T05:52:16;100301.50;;;15.76;47.59
14383;BME280;7275;50.328;8.720;2023-04-30T05:54:44;100302.16;;;15.81;47.70
14383;BME280;7275;50.328;8.720;2023-04-30T05:57:15;100299.97;;;15.89;47.67
14383;BME280;7275;50.328;8.720;2023-04-30T05:59:43;100308.53;;;15.95;47.39
14383;BME280;7275;50.328;8.720;2023-04-30T06:02:12;100308.13;;;16.03;47.46
14383;BME280;7275;50.328;8.720;2023-04-30T06:04:39;100298.19;;;16.07;47.40
14383;BME280;7275;50.328;8.720;2023-04-30T06:07:07;100305.03;;;16.12;47.41
14383;BME280;7275;50.328;8.720;2023-04-30T06:09:35;100310.06;;;16.18;47.43
14383;BME280;7275;50.328;8.720;2023-04-30T06:12:03;100306.06;;;16.27;47.40
14383;BME280;7275;50.328;8.720;2023-04-30T06:14:30;100311.09;;;16.33;47.43
14383;BME280;7275;50.328;8.720;2023-04-30T06:16:58;100313.25;;;16.42;47.34
14383;BME280;7275;50.328;8.720;2023-04-30T06:19:27;100311.91;;;16.52;47.46
14383;BME280;7275;50.328;8.720;2023-04-30T06:21:54;100315.72;;;16.63;47.34
14383;BME280;7275;50.328;8.720;2023-04-30T06:24:22;100314.28;;;16.73;47.19
14383;BME280;7275;50.328;8.720;2023-04-30T06:26:52;100309.25;;;16.85;47.18
14383;BME280;7275;50.328;8.720;2023-04-30T06:29:20;100318.34;;;16.98;47.29
14383;BME280;7275;50.328;8.720;2023-04-30T06:31:49;100313.28;;;17.09;47.00
14383;BME280;7275;50.328;8.720;2023-04-30T06:34:17;100304.69;;;17.19;46.85
14383;BME280;7275;50.328;8.720;2023-04-30T06:36:46;100300.72;;;17.26;46.65
14383;BME280;7275;50.328;8.720;2023-04-30T06:39:14;100303.94;;;17.33;46.57
14383;BME280;7275;50.328;8.720;2023-04-30T06:41:42;100308.06;;;17.38;46.41
14383;BME280;7275;50.328;8.720;2023-04-30T06:44:09;100307.81;;;17.43;46.38
14383;BME280;7275;50.328;8.720;2023-04-30T06:46:38;100302.94;;;17.51;46.37
14383;BME280;7275;50.328;8.720;2023-04-30T06:49:05;100310.59;;;17.57;46.37
14383;BME280;7275;50.328;8.720;2023-04-30T06:51:33;100310.09;;;17.66;46.25
14383;BME280;7275;50.328;8.720;2023-04-30T06:54:02;100306.91;;;17.75;46.15
14383;BME280;7275;50.328;8.720;2023-04-30T06:56:29;100312.59;;;17.85;46.25
14383;BME280;7275;50.328;8.720;2023-04-30T06:58:56;100306.63;;;17.95;46.03
14383;BME280;7275;50.328;8.720;2023-04-30T07:01:24;100302.38;;;18.07;45.94
14383;BME280;7275;50.328;8.720;2023-04-30T07:03:52;100309.75;;;18.17;45.76
14383;BME280;7275;50.328;8.720;2023-04-30T07:06:20;100312.84;;;18.25;45.65
14383;BME280;7275;50.328;8.720;2023-04-30T07:08:47;100305.31;;;18.32;45.63
14383;BME280;7275;50.328;8.720;2023-04-30T07:11:16;100306.50;;;18.42;45.46
14383;BME280;7275;50.328;8.720;2023-04-30T07:13:44;100298.81;;;18.52;45.46
14383;BME280;7275;50.328;8.720;2023-04-30T07:16:11;100297.41;;;18.60;45.51
14383;BME280;7275;50.328;8.720;2023-04-30T07:18:39;100306.78;;;18.67;45.45
14383;BME280;7275;50.328;8.720;2023-04-30T07:21:07;100299.06;;;18.77;45.36
14383;BME280;7275;50.328;8.720;2023-04-30T07:23:34;100302.03;;;18.86;45.15
14383;BME280;7275;50.328;8.720;2023-04-30T07:26:02;100299.84;;;18.93;45.11
14383;BME280;7275;50.328;8.720;2023-04-30T07:28:31;100298.50;;;19.00;45.10
14383;BME280;7275;50.328;8.720;2023-04-30T07:30:58;100294.69;;;19.04;45.09
14383;BME280;7275;50.328;8.720;2023-04-30T07:33:27;100292.47;;;19.10;45.08
14383;BME280;7275;50.328;8.720;2023-04-30T07:35:55;100289.41;;;19.17;45.06
14383;BME280;7275;50.328;8.720;2023-04-30T07:38:24;100295.16;;;19.25;44.75
14383;BME280;7275;50.328;8.720;2023-04-30T07:40:51;100294.59;;;19.34;45.02
14383;BME280;7275;50.328;8.720;2023-04-30T07:43:19;100285.78;;;19.46;44.91
14383;BME280;7275;50.328;8.720;2023-04-30T07:45:48;100286.91;;;19.56;44.88
14383;BME280;7275;50.328;8.720;2023-04-30T07:48:16;100289.06;;;19.63;44.80
14383;BME280;7275;50.328;8.720;2023-04-30T07:50:46;100278.63;;;19.73;44.69
14383;BME280;7275;50.328;8.720;2023-04-30T07:53:17;100285.28;;;19.80;44.65
14383;BME280;7275;50.328;8.720;2023-04-30T07:55:44;100283.81;;;19.88;44.48
14383;BME280;7275;50.328;8.720;2023-04-30T07:58:12;100290.41;;;19.97;44.64
14383;BME280;7275;50.328;8.720;2023-04-30T08:00:40;100286.88;;;20.09;44.52
14383;BME280;7275;50.328;8.720;2023-04-30T08:03:09;100289.56;;;20.23;44.42
14383;BME280;7275;50.328;8.720;2023-04-30T08:05:36;100299.34;;;20.37;44.17
14383;BME280;7275;50.328;8.720;2023-04-30T08:08:04;100296.69;;;20.49;43.69
14383;BME280;7275;50.328;8.720;2023-04-30T08:10:32;100302.97;;;20.62;43.58
14383;BME280;7275;50.328;8.720;2023-04-30T08:12:59;100305.56;;;20.77;43.38
14383;BME280;7275;50.328;8.720;2023-04-30T08:15:27;100298.56;;;20.87;43.16
14383;BME280;7275;50.328;8.720;2023-04-30T08:17:55;100301.25;;;20.99;43.08
14383;BME280;7275;50.328;8.720;2023-04-30T08:20:24;100293.31;;;21.10;42.62
14383;BME280;7275;50.328;8.720;2023-04-30T08:22:52;100298.56;;;21.24;42.50
14383;BME280;7275;50.328;8.720;2023-04-30T08:25:19;100292.31;;;21.36;42.61
14383;BME280;7275;50.328;8.720;2023-04-30T08:27:47;100287.88;;;21.48;42.38
14383;BME280;7275;50.328;8.720;2023-04-30T08:30:15;100294.19;;;21.60;41.93
14383;BME280;7275;50.328;8.720;2023-04-30T08:32:42;100298.66;;;21.72;41.73
14383;BME280;7275;50.328;8.720;2023-04-30T08:35:10;100297.06;;;21.82;41.49
14383;BME280;7275;50.328;8.720;2023-04-30T08:37:38;100288.41;;;21.89;41.32
14383;BME280;7275;50.328;8.720;2023-04-30T08:40:07;100294.22;;;21.96;41.62
14383;BME280;7275;50.328;8.720;2023-04-30T08:42:40;100296.09;;;22.06;41.59
14383;BME280;7275;50.328;8.720;2023-04-30T08:45:11;100293.44;;;22.17;41.05
14383;BME280;7275;50.328;8.720;2023-04-30T08:47:40;100294.22;;;22.31;41.37
14383;BME280;7275;50.328;8.720;2023-04-30T08:50:08;100295.91;;;22.44;41.09
14383;BME280;7275;50.328;8.720;2023-04-30T08:52:36;100293.22;;;22.55;40.53
14383;BME280;7275;50.328;8.720;2023-04-30T08:55:08;100284.31;;;22.66;40.42
14383;BME280;7275;50.328;8.720;2023-04-30T08:57:36;100286.09;;;22.78;40.23
14383;BME280;7275;50.328;8.720;2023-04-30T09:00:05;100284.38;;;22.88;40.25
14383;BME280;7275;50.328;8.720;2023-04-30T09:02:33;100284.50;;;22.97;40.29
14383;BME280;7275;50.328;8.720;2023-04-30T09:05:01;100286.13;;;23.11;40.04
14383;BME280;7275;50.328;8.720;2023-04-30T09:07:32;100270.66;;;23.24;39.73
14383;BME280;7275;50.328;8.720;2023-04-30T09:09:59;100273.16;;;23.38;39.69
14383;BME280;7275;50.328;8.720;2023-04-30T09:12:29;100279.25;;;23.51;39.82
14383;BME280;7275;50.328;8.720;2023-04-30T09:14:57;100277.41;;;23.63;39.26
14383;BME280;7275;50.328;8.720;2023-04-30T09:17:27;100278.22;;;23.74;39.16
14383;BME280;7275;50.328;8.720;2023-04-30T09:19:54;100271.81;;;23.87;39.39
14383;BME280;7275;50.328;8.720;2023-04-30T09:22:32;100272.38;;;24.01;39.32
14383;BME280;7275;50.328;8.720;2023-04-30T09:24:59;100271.25;;;24.15;39.45
14383;BME280;7275;50.328;8.720;2023-04-30T09:27:27;100275.25;;;24.31;39.29
14383;BME280;7275;50.328;8.720;2023-04-30T09:29:55;100272.22;;;24.45;38.82
14383;BME280;7275;50.328;8.720;2023-04-30T09:32:23;100266.81;;;24.66;38.89
14383;BME280;7275;50.328;8.720;2023-04-30T09:34:51;100270.53;;;24.86;39.10
14383;BME280;7275;50.328;8.720;2023-04-30T09:37:18;100265.94;;;25.07;38.84
14383;BME280;7275;50.328;8.720;2023-04-30T09:39:47;100262.91;;;25.30;38.52
14383;BME280;7275;50.328;8.720;2023-04-30T09:42:16;100258.91;;;25.55;38.50
14383;BME280;7275;50.328;8.720;2023-04-30T09:44:45;100266.53;;;25.80;38.54
14383;BME280;7275;50.328;8.720;2023-04-30T09:47:15;100254.59;;;26.11;38.22
14383;BME280;7275;50.328;8.720;2023-04-30T09:49:45;100252.44;;;26.44;38.21
14383;BME280;7275;50.328;8.720;2023-04-30T09:52:14;100251.38;;;26.83;37.94
14383;BME280;7275;50.328;8.720;2023-04-30T09:54:43;100251.97;;;27.23;37.06
14383;BME280;7275;50.328;8.720;2023-04-30T09:57:12;100246.38;;;27.61;36.61
14383;BME280;7275;50.328;8.720;2023-04-30T09:59:43;100240.41;;;28.03;36.32
14383;BME280;7275;50.328;8.720;2023-04-30T10:02:12;100238.69;;;28.37;35.05
14383;BME280;7275;50.328;8.720;2023-04-30T10:04:43;100233.25;;;28.80;34.75
14383;BME280;7275;50.328;8.720;2023-04-30T10:07:14;100230.97;;;29.27;34.08
14383;BME280;7275;50.328;8.720;2023-04-30T10:09:48;100228.28;;;29.77;33.68
14383;BME280;7275;50.328;8.720;2023-04-30T10:12:20;100225.66;;;30.33;32.68
14383;BME280;7275;50.328;8.720;2023-04-30T10:14:51;100218.09;;;30.84;31.93
14383;BME280;7275;50.328;8.720;2023-04-30T10:17:22;100215.06;;;31.33;31.50
14383;BME280;7275;50.328;8.720;2023-04-30T10:19:56;100207.97;;;31.86;30.89
14383;BME280;7275;50.328;8.720;2023-04-30T10:22:28;100200.09;;;32.36;30.32
14383;BME280;7275;50.328;8.720;2023-04-30T10:24:56;100198.41;;;32.72;29.67
14383;BME280;7275;50.328;8.720;2023-04-30T10:27:24;100209.72;;;33.21;28.97
14383;BME280;7275;50.328;8.720;2023-04-30T10:29:52;100207.41;;;33.68;28.05
14383;BME280;7275;50.328;8.720;2023-04-30T10:32:22;100197.31;;;34.11;27.93
14383;BME280;7275;50.328;8.720;2023-04-30T10:34:57;100182.13;;;34.57;27.70
14383;BME280;7275;50.328;8.720;2023-04-30T10:37:32;100176.09;;;34.96;27.45
14383;BME280;7275;50.328;8.720;2023-04-30T10:40:01;100172.97;;;35.47;26.87
14383;BME280;7275;50.328;8.720;2023-04-30T10:42:33;100182.00;;;35.81;25.62
14383;BME280;7275;50.328;8.720;2023-04-30T10:45:01;100166.00;;;36.11;25.73
14383;BME280;7275;50.328;8.720;2023-04-30T10:47:28;100162.00;;;36.53;25.23
14383;BME280;7275;50.328;8.720;2023-04-30T10:50:02;100160.25;;;36.98;24.96
14383;BME280;7275;50.328;8.720;2023-04-30T10:52:30;100163.34;;;37.27;24.34
14383;BME280;7275;50.328;8.720;2023-04-30T10:54:57;100161.97;;;37.56;23.61
14383;BME280;7275;50.328;8.720;2023-04-30T10:57:28;100154.41;;;37.76;23.14
14383;BME280;7275;50.328;8.720;2023-04-30T11:00:17;100156.66;;;37.99;23.20
14383;BME280;7275;50.328;8.720;2023-04-30T11:02:46;100143.88;;;38.29;22.55
14383;BME280;7275;50.328;8.720;2023-04-30T11:05:17;100146.97;;;38.39;22.25
14383;BME280;7275;50.328;8.720;2023-04-30T11:07:46;100147.25;;;38.56;21.98
14383;BME280;7275;50.328;8.720;2023-04-30T11:10:17;100148.50;;;38.84;21.79
14383;BME280;7275;50.328;8.720;2023-04-30T11:12:47;100139.53;;;39.25;21.83
14383;BME280;7275;50.328;8.720;2023-04-30T11:15:17;100142.78;;;39.22;21.31
14383;BME280;7275;50.328;8.720;2023-04-30T11:17:47;100129.47;;;39.12;21.20
14383;BME280;7275;50.328;8.720;2023-04-30T11:20:20;100131.81;;;38.91;21.11
14383;BME280;7275;50.328;8.720;2023-04-30T11:23:07;100131.69;;;38.61;21.20
14383;BME280;7275;50.328;8.720;2023-04-30T11:25:38;100131.59;;;37.94;21.25
14383;BME280;7275;50.328;8.720;2023-04-30T11:28:06;100136.00;;;37.19;21.41
14383;BME280;7275;50.328;8.720;2023-04-30T11:30:34;100129.53;;;36.68;21.24
14383;BME280;7275;50.328;8.720;2023-04-30T11:33:03;100136.75;;;36.62;21.26
14383;BME280;7275;50.328;8.720;2023-04-30T11:35:32;100127.84;;;36.60;21.42
14383;BME280;7275;50.328;8.720;2023-04-30T11:38:00;100126.50;;;37.02;21.06
14383;BME280;7275;50.328;8.720;2023-04-30T11:40:34;100123.09;;;37.13;20.78
14383;BME280;7275;50.328;8.720;2023-04-30T11:43:01;100126.13;;;36.66;21.26
14383;BME280;7275;50.328;8.720;2023-04-30T11:45:29;100121.28;;;36.35;20.97
14383;BME280;7275;50.328;8.720;2023-04-30T11:47:56;100112.59;;;36.45;20.87
14383;BME280;7275;50.328;8.720;2023-04-30T11:50:26;100111.94;;;36.62;21.15
14383;BME280;7275;50.328;8.720;2023-04-30T11:52:57;100114.75;;;37.20;21.03
14383;BME280;7275;50.328;8.720;2023-04-30T11:55:27;100120.34;;;37.89;20.37
14383;BME280;7275;50.328;8.720;2023-04-30T11:57:56;100111.94;;;38.58;19.52
14383;BME280;7275;50.328;8.720;2023-04-30T12:00:26;100105.00;;;39.28;19.20
14383;BME280;7275;50.328;8.720;2023-04-30T12:02:55;100110.59;;;39.57;19.19
14383;BME280;7275;50.328;8.720;2023-04-30T12:05:24;100102.22;;;39.87;19.03
14383;BME280;7275;50.328;8.720;2023-04-30T12:07:54;100099.34;;;39.82;18.46
14383;BME280;7275;50.328;8.720;2023-04-30T12:10:23;100100.38;;;38.85;18.79
14383;BME280;7275;50.328;8.720;2023-04-30T12:12:51;100097.66;;;37.87;19.13
14383;BME280;7275;50.328;8.720;2023-04-30T12:15:21;100092.59;;;37.84;19.40
14383;BME280;7275;50.328;8.720;2023-04-30T12:17:52;100096.16;;;38.15;19.35
14383;BME280;7275;50.328;8.720;2023-04-30T12:20:22;100088.25;;;38.68;19.00
14383;BME280;7275;50.328;8.720;2023-04-30T12:22:50;100100.00;;;39.18;18.49
14383;BME280;7275;50.328;8.720;2023-04-30T12:25:20;100083.03;;;39.62;18.37
14383;BME280;7275;50.328;8.720;2023-04-30T12:27:50;100093.53;;;40.13;17.81
14383;BME280;7275;50.328;8.720;2023-04-30T12:30:19;100087.66;;;40.56;17.49
14383;BME280;7275;50.328;8.720;2023-04-30T12:32:48;100094.41;;;40.95;17.47
14383;BME280;7275;50.328;8.720;2023-04-30T12:35:17;100091.06;;;41.21;16.77
14383;BME280;7275;50.328;8.720;2023-04-30T12:37:47;100090.06;;;41.38;16.25
14383;BME280;7275;50.328;8.720;2023-04-30T12:40:17;100081.06;;;41.20;16.67
14383;BME280;7275;50.328;8.720;2023-04-30T12:42:45;100089.06;;;41.05;16.81
14383;BME280;7275;50.328;8.720;2023-04-30T12:45:44;100089.28;;;41.15;17.14
14383;BME280;7275;50.328;8.720;2023-04-30T12:48:14;100084.16;;;41.35;16.68
14383;BME280;7275;50.328;8.720;2023-04-30T12:50:41;100079.81;;;41.67;16.94
14383;BME280;7275;50.328;8.720;2023-04-30T12:53:13;100084.25;;;42.13;15.85
14383;BME280;7275;50.328;8.720;2023-04-30T12:55:41;100064.59;;;42.53;15.56
14383;BME280;7275;50.328;8.720;2023-04-30T12:58:10;100059.13;;;42.79;15.80
14383;BME280;7275;50.328;8.720;2023-04-30T13:00:45;100058.72;;;42.49;15.64
14383;BME280;7275;50.328;8.720;2023-04-30T13:03:13;100058.66;;;42.11;15.76
14383;BME280;7275;50.328;8.720;2023-04-30T13:05:45;100063.13;;;42.12;15.58
14383;BME280;7275;50.328;8.720;2023-04-30T13:08:13;100053.41;;;42.31;15.49
14383;BME280;7275;50.328;8.720;2023-04-30T13:10:41;100044.97;;;42.59;15.15